sensor_id;sensor_type;location;lat;lon;timestamp;temperature;humidity
31979;DHT22;18502;43.574;1.276;2023-08-06T00:02:14;17.40;99.90
31979;DHT22;18502;43.574;1.276;2023-08-06T00:04:39;17.40;99.90
31979;DHT22;18502;43.574;1.276;2023-08-06T00:07:05;17.30;99.90
31979;DHT22;18502;43.574;1.276;2023-08-06T00:09:30;17.30;99.90
31979;DHT22;18502;43.574;1.276;2023-08-06T00:11:56;17.30;99.90
31979;DHT22;18502;43.574;1.276;2023-08-06T00:14:22;17.30;99.90
31979;DHT22;18502;43.574;1.276;2023-08-06T00:16:47;17.30;99.90
31979;DHT22;18502;43.574;1.276;2023-08-06T00:19:13;17.20;99.90
31979;DHT22;18502;43.574;1.276;2023-08-06T00:21:39;17.10;99.90
31979;DHT22;18502;43.574;1.276;2023-08-06T00:24:04;17.10;99.90
31979;DHT22;18502;43.574;1.276;2023-08-06T00:26:30;17.10;99.90
31979;DHT22;18502;43.574;1.276;2023-08-06T00:28:56;17.20;99.90
31979;DHT22;18502;43.574;1.276;2023-08-06T00:31:21;17.30;99.90
31979;DHT22;18502;43.574;1.276;2023-08-06T00:33:47;17.40;99.90
31979;DHT22;18502;43.574;1.276;2023-08-06T00:36:12;17.30;99.90
31979;DHT22;18502;43.574;1.276;2023-08-06T00:38:38;17.30;99.90
31979;DHT22;18502;43.574;1.276;2023-08-06T00:41:04;17.30;99.90
31979;DHT22;18502;43.574;1.276;2023-08-06T00:43:29;17.30;99.90
31979;DHT22;18502;43.574;1.276;2023-08-06T00:45:55;17.30;99.90
31979;DHT22;18502;43.574;1.276;2023-08-06T00:48:21;17.30;99.90
31979;DHT22;18502;43.574;1.276;2023-08-06T00:50:47;17.30;99.90
31979;DHT22;18502;43.574;1.276;2023-08-06T00:53:13;17.20;99.90
31979;DHT22;18502;43.574;1.276;2023-08-06T00:55:39;17.20;99.90
31979;DHT22;18502;43.574;1.276;2023-08-06T00:58:05;17.30;99.90
31979;DHT22;18502;43.574;1.276;2023-08-06T01:00:31;17.30;99.90
31979;DHT22;18502;43.574;1.276;2023-08-06T01:02:57;17.30;99.90
31979;DHT22;18502;43.574;1.276;2023-08-06T01:05:22;17.40;99.90
31979;DHT22;18502;43.574;1.276;2023-08-06T01:08:56;17.30;99.90
31979;DHT22;18502;43.574;1.276;2023-08-06T01:13:42;17.20;99.90
31979;DHT22;18502;43.574;1.276;2023-08-06T01:16:10;17.20;99.90
31979;DHT22;18502;43.574;1.276;2023-08-06T01:18:36;17.20;99.90
31979;DHT22;18502;43.574;1.276;2023-08-06T01:21:04;17.20;99.90
31979;DHT22;18502;43.574;1.276;2023-08-06T01:23:30;17.20;99.90
31979;DHT22;18502;43.574;1.276;2023-08-06T01:31:37;17.10;99.90
31979;DHT22;18502;43.574;1.276;2023-08-06T01:34:05;17.00;99.90
31979;DHT22;18502;43.574;1.276;2023-08-06T01:36:31;16.80;99.90
31979;DHT22;18502;43.574;1.276;2023-08-06T01:38:57;16.80;99.90
31979;DHT22;18502;43.574;1.276;2023-08-06T01:41:23;16.80;99.90
31979;DHT22;18502;43.574;1.276;2023-08-06T01:43:49;16.80;99.90
31979;DHT22;18502;43.574;1.276;2023-08-06T01:46:14;16.80;99.90
31979;DHT22;18502;43.574;1.276;2023-08-06T01:48:40;16.80;99.90
31979;DHT22;18502;43.574;1.276;2023-08-06T01:51:06;16.80;99.90
31979;DHT22;18502;43.574;1.276;2023-08-06T01:53:33;16.80;99.90
31979;DHT22;18502;43.574;1.276;2023-08-06T01:55:59;16.70;99.90
31979;DHT22;18502;43.574;1.276;2023-08-06T01:58:24;16.50;99.90
31979;DHT22;18502;43.574;1.276;2023-08-06T02:00:50;16.40;99.90
31979;DHT22;18502;43.574;1.276;2023-08-06T02:03:16;16.50;99.90
31979;DHT22;18502;43.574;1.276;2023-08-06T02:05:42;16.50;99.90
31979;DHT22;18502;43.574;1.276;2023-08-06T02:08:08;16.50;99.90
31979;DHT22;18502;43.574;1.276;2023-08-06T02:10:33;16.50;99.90
31979;DHT22;18502;43.574;1.276;2023-08-06T02:12:59;16.50;99.90
31979;DHT22;18502;43.574;1.276;2023-08-06T02:15:25;16.60;99.90
31979;DHT22;18502;43.574;1.276;2023-08-06T02:17:51;16.60;99.90
31979;DHT22;18502;43.574;1.276;2023-08-06T02:20:16;16.60;99.90
31979;DHT22;18502;43.574;1.276;2023-08-06T02:22:42;16.60;99.90
31979;DHT22;18502;43.574;1.276;2023-08-06T02:25:08;16.70;99.90
31979;DHT22;18502;43.574;1.276;2023-08-06T02:27:33;16.80;99.90
31979;DHT22;18502;43.574;1.276;2023-08-06T02:29:59;16.80;99.90
31979;DHT22;18502;43.574;1.276;2023-08-06T02:32:25;16.80;99.90
31979;DHT22;18502;43.574;1.276;2023-08-06T02:34:51;16.80;99.90
31979;DHT22;18502;43.574;1.276;2023-08-06T02:37:16;16.80;99.90
31979;DHT22;18502;43.574;1.276;2023-08-06T02:39:42;16.80;99.90
31979;DHT22;18502;43.574;1.276;2023-08-06T02:42:08;16.80;99.90
31979;DHT22;18502;43.574;1.276;2023-08-06T02:44:35;16.80;99.90
31979;DHT22;18502;43.574;1.276;2023-08-06T02:47:01;16.80;99.90
31979;DHT22;18502;43.574;1.276;2023-08-06T02:49:26;16.70;99.90
31979;DHT22;18502;43.574;1.276;2023-08-06T02:51:52;16.70;99.90
31979;DHT22;18502;43.574;1.276;2023-08-06T02:54:18;16.70;99.90
31979;DHT22;18502;43.574;1.276;2023-08-06T02:56:45;16.70;99.90
31979;DHT22;18502;43.574;1.276;2023-08-06T02:59:11;16.70;99.90
31979;DHT22;18502;43.574;1.276;2023-08-06T03:01:37;16.70;99.90
31979;DHT22;18502;43.574;1.276;2023-08-06T03:04:03;16.70;99.90
31979;DHT22;18502;43.574;1.276;2023-08-06T03:06:28;16.70;99.90
31979;DHT22;18502;43.574;1.276;2023-08-06T03:08:54;16.70;99.90
31979;DHT22;18502;43.574;1.276;2023-08-06T03:11:20;16.70;99.90
31979;DHT22;18502;43.574;1.276;2023-08-06T03:13:47;16.70;99.90
31979;DHT22;18502;43.574;1.276;2023-08-06T03:16:13;16.70;99.90
31979;DHT22;18502;43.574;1.276;2023-08-06T03:18:39;16.70;99.90
31979;DHT22;18502;43.574;1.276;2023-08-06T03:21:04;16.70;99.90
31979;DHT22;18502;43.574;1.276;2023-08-06T03:23:30;16.70;99.90
31979;DHT22;18502;43.574;1.276;2023-08-06T03:25:56;16.70;99.90
31979;DHT22;18502;43.574;1.276;2023-08-06T03:28:21;16.70;99.90
31979;DHT22;18502;43.574;1.276;2023-08-06T03:30:47;16.70;99.90
31979;DHT22;18502;43.574;1.276;2023-08-06T03:33:13;16.70;99.90
31979;DHT22;18502;43.574;1.276;2023-08-06T03:35:39;16.80;99.90
31979;DHT22;18502;43.574;1.276;2023-08-06T03:38:05;16.70;99.90
31979;DHT22;18502;43.574;1.276;2023-08-06T03:40:31;16.70;99.90
31979;DHT22;18502;43.574;1.276;2023-08-06T03:42:56;16.70;99.90
31979;DHT22;18502;43.574;1.276;2023-08-06T03:45:22;16.70;99.90
31979;DHT22;18502;43.574;1.276;2023-08-06T03:47:48;16.70;99.90
31979;DHT22;18502;43.574;1.276;2023-08-06T03:50:13;16.70;99.90
31979;DHT22;18502;43.574;1.276;2023-08-06T03:52:39;16.70;99.90
31979;DHT22;18502;43.574;1.276;2023-08-06T03:55:05;16.70;99.90
31979;DHT22;18502;43.574;1.276;2023-08-06T03:57:31;16.70;99.90
31979;DHT22;18502;43.574;1.276;2023-08-06T03:59:56;16.60;99.90
31979;DHT22;18502;43.574;1.276;2023-08-06T04:02:22;16.60;99.90
31979;DHT22;18502;43.574;1.276;2023-08-06T04:04:48;16.50;99.90
31979;DHT22;18502;43.574;1.276;2023-08-06T04:07:14;16.50;99.90
31979;DHT22;18502;43.574;1.276;2023-08-06T04:09:53;16.50;99.90
31979;DHT22;18502;43.574;1.276;2023-08-06T04:12:20;16.50;99.90
31979;DHT22;18502;43.574;1.276;2023-08-06T04:14:45;16.50;99.90
31979;DHT22;18502;43.574;1.276;2023-08-06T04:17:11;16.50;99.90
31979;DHT22;18502;43.574;1.276;2023-08-06T04:19:36;16.50;99.90
31979;DHT22;18502;43.574;1.276;2023-08-06T04:22:02;16.50;99.90
31979;DHT22;18502;43.574;1.276;2023-08-06T04:24:28;16.40;99.90
31979;DHT22;18502;43.574;1.276;2023-08-06T04:26:53;16.50;99.90
31979;DHT22;18502;43.574;1.276;2023-08-06T04:29:19;16.40;99.90
31979;DHT22;18502;43.574;1.276;2023-08-06T04:31:45;16.40;99.90
31979;DHT22;18502;43.574;1.276;2023-08-06T04:34:10;16.50;99.90
31979;DHT22;18502;43.574;1.276;2023-08-06T04:36:37;16.50;99.90
31979;DHT22;18502;43.574;1.276;2023-08-06T04:39:04;16.50;99.90
31979;DHT22;18502;43.574;1.276;2023-08-06T04:41:30;16.50;99.90
31979;DHT22;18502;43.574;1.276;2023-08-06T04:43:57;16.50;99.90
31979;DHT22;18502;43.574;1.276;2023-08-06T04:46:22;16.50;99.90
31979;DHT22;18502;43.574;1.276;2023-08-06T04:48:48;16.40;99.90
31979;DHT22;18502;43.574;1.276;2023-08-06T04:51:13;16.40;99.90
31979;DHT22;18502;43.574;1.276;2023-08-06T04:53:40;16.50;99.90
31979;DHT22;18502;43.574;1.276;2023-08-06T04:56:05;16.50;99.90
31979;DHT22;18502;43.574;1.276;2023-08-06T04:58:31;16.50;99.90
31979;DHT22;18502;43.574;1.276;2023-08-06T05:00:57;16.50;99.90
31979;DHT22;18502;43.574;1.276;2023-08-06T05:03:23;16.50;99.90
31979;DHT22;18502;43.574;1.276;2023-08-06T05:05:48;16.50;99.90
31979;DHT22;18502;43.574;1.276;2023-08-06T05:08:15;16.60;99.90
31979;DHT22;18502;43.574;1.276;2023-08-06T05:10:43;16.60;99.90
31979;DHT22;18502;43.574;1.276;2023-08-06T05:13:09;16.60;99.90
31979;DHT22;18502;43.574;1.276;2023-08-06T05:15:35;16.50;99.90
31979;DHT22;18502;43.574;1.276;2023-08-06T05:18:00;16.50;99.90
31979;DHT22;18502;43.574;1.276;2023-08-06T05:20:26;16.60;99.90
31979;DHT22;18502;43.574;1.276;2023-08-06T05:22:52;16.60;99.90
31979;DHT22;18502;43.574;1.276;2023-08-06T05:25:17;16.70;99.90
31979;DHT22;18502;43.574;1.276;2023-08-06T05:27:43;16.70;99.90
31979;DHT22;18502;43.574;1.276;2023-08-06T05:30:09;16.80;99.90
31979;DHT22;18502;43.574;1.276;2023-08-06T05:32:35;16.80;99.90
31979;DHT22;18502;43.574;1.276;2023-08-06T05:35:01;16.80;99.90
31979;DHT22;18502;43.574;1.276;2023-08-06T05:37:26;16.90;99.90
31979;DHT22;18502;43.574;1.276;2023-08-06T05:39:52;16.90;99.90
31979;DHT22;18502;43.574;1.276;2023-08-06T05:42:18;16.90;99.90
31979;DHT22;18502;43.574;1.276;2023-08-06T05:44:43;16.80;99.90
31979;DHT22;18502;43.574;1.276;2023-08-06T05:47:09;16.80;99.90
31979;DHT22;18502;43.574;1.276;2023-08-06T05:49:35;16.80;99.90
31979;DHT22;18502;43.574;1.276;2023-08-06T05:52:00;16.90;99.90
31979;DHT22;18502;43.574;1.276;2023-08-06T05:54:26;16.90;99.90
31979;DHT22;18502;43.574;1.276;2023-08-06T05:56:51;16.90;99.90
31979;DHT22;18502;43.574;1.276;2023-08-06T05:59:17;16.80;99.90
31979;DHT22;18502;43.574;1.276;2023-08-06T06:01:43;16.90;99.90
31979;DHT22;18502;43.574;1.276;2023-08-06T06:04:08;16.90;99.90
31979;DHT22;18502;43.574;1.276;2023-08-06T06:06:34;16.90;99.90
31979;DHT22;18502;43.574;1.276;2023-08-06T06:09:00;17.00;99.90
31979;DHT22;18502;43.574;1.276;2023-08-06T06:11:25;17.10;99.90
31979;DHT22;18502;43.574;1.276;2023-08-06T06:13:51;17.20;99.90
31979;DHT22;18502;43.574;1.276;2023-08-06T06:16:17;17.30;99.90
31979;DHT22;18502;43.574;1.276;2023-08-06T06:18:43;17.20;99.90
31979;DHT22;18502;43.574;1.276;2023-08-06T06:21:10;17.30;99.90
31979;DHT22;18502;43.574;1.276;2023-08-06T06:23:35;17.40;99.90
31979;DHT22;18502;43.574;1.276;2023-08-06T06:26:01;17.40;99.90
31979;DHT22;18502;43.574;1.276;2023-08-06T06:28:27;17.60;99.90
31979;DHT22;18502;43.574;1.276;2023-08-06T06:30:52;17.70;99.90
31979;DHT22;18502;43.574;1.276;2023-08-06T06:33:18;17.70;99.90
31979;DHT22;18502;43.574;1.276;2023-08-06T06:35:43;17.80;99.90
31979;DHT22;18502;43.574;1.276;2023-08-06T06:38:09;17.80;99.90
31979;DHT22;18502;43.574;1.276;2023-08-06T06:40:35;17.90;99.90
31979;DHT22;18502;43.574;1.276;2023-08-06T06:43:00;17.70;99.90
31979;DHT22;18502;43.574;1.276;2023-08-06T06:45:26;17.90;99.90
31979;DHT22;18502;43.574;1.276;2023-08-06T06:47:51;17.70;99.90
31979;DHT22;18502;43.574;1.276;2023-08-06T06:50:17;17.60;99.90
31979;DHT22;18502;43.574;1.276;2023-08-06T06:52:43;17.60;99.90
31979;DHT22;18502;43.574;1.276;2023-08-06T06:55:08;17.80;99.90
31979;DHT22;18502;43.574;1.276;2023-08-06T06:57:36;17.80;99.90
31979;DHT22;18502;43.574;1.276;2023-08-06T07:00:01;17.80;99.90
31979;DHT22;18502;43.574;1.276;2023-08-06T07:02:27;18.10;99.90
31979;DHT22;18502;43.574;1.276;2023-08-06T07:04:52;18.10;99.90
31979;DHT22;18502;43.574;1.276;2023-08-06T07:07:18;18.30;99.90
31979;DHT22;18502;43.574;1.276;2023-08-06T07:09:44;18.40;99.90
31979;DHT22;18502;43.574;1.276;2023-08-06T07:12:10;18.30;99.90
31979;DHT22;18502;43.574;1.276;2023-08-06T07:14:35;18.20;99.90
31979;DHT22;18502;43.574;1.276;2023-08-06T07:17:01;18.00;99.90
31979;DHT22;18502;43.574;1.276;2023-08-06T07:19:27;18.20;99.90
31979;DHT22;18502;43.574;1.276;2023-08-06T07:21:52;18.40;99.90
31979;DHT22;18502;43.574;1.276;2023-08-06T07:24:18;18.60;99.90
31979;DHT22;18502;43.574;1.276;2023-08-06T07:26:44;18.70;99.90
31979;DHT22;18502;43.574;1.276;2023-08-06T07:29:09;18.70;99.90
31979;DHT22;18502;43.574;1.276;2023-08-06T07:31:35;18.70;99.90
31979;DHT22;18502;43.574;1.276;2023-08-06T07:34:01;18.50;99.90
31979;DHT22;18502;43.574;1.276;2023-08-06T07:36:26;18.80;99.90
31979;DHT22;18502;43.574;1.276;2023-08-06T07:38:52;18.70;99.90
31979;DHT22;18502;43.574;1.276;2023-08-06T07:41:24;18.90;99.90
31979;DHT22;18502;43.574;1.276;2023-08-06T07:43:50;19.00;99.90
31979;DHT22;18502;43.574;1.276;2023-08-06T07:46:16;19.10;99.90
31979;DHT22;18502;43.574;1.276;2023-08-06T07:48:41;19.20;99.90
31979;DHT22;18502;43.574;1.276;2023-08-06T07:51:07;19.30;99.90
31979;DHT22;18502;43.574;1.276;2023-08-06T07:53:33;19.40;99.90
31979;DHT22;18502;43.574;1.276;2023-08-06T07:55:58;19.40;99.90
31979;DHT22;18502;43.574;1.276;2023-08-06T07:58:25;19.40;99.90
31979;DHT22;18502;43.574;1.276;2023-08-06T08:00:51;19.70;99.90
31979;DHT22;18502;43.574;1.276;2023-08-06T08:03:17;20.00;99.90
31979;DHT22;18502;43.574;1.276;2023-08-06T08:05:43;19.90;99.90
31979;DHT22;18502;43.574;1.276;2023-08-06T08:08:09;20.20;99.90
31979;DHT22;18502;43.574;1.276;2023-08-06T08:10:36;20.20;99.90
31979;DHT22;18502;43.574;1.276;2023-08-06T08:13:03;19.80;99.90
31979;DHT22;18502;43.574;1.276;2023-08-06T08:15:30;19.60;99.90
31979;DHT22;18502;43.574;1.276;2023-08-06T08:17:56;19.90;99.90
31979;DHT22;18502;43.574;1.276;2023-08-06T08:20:22;19.90;99.90
31979;DHT22;18502;43.574;1.276;2023-08-06T08:22:48;20.00;99.90
31979;DHT22;18502;43.574;1.276;2023-08-06T08:25:15;20.20;99.90
31979;DHT22;18502;43.574;1.276;2023-08-06T08:27:40;20.60;99.90
31979;DHT22;18502;43.574;1.276;2023-08-06T08:30:06;20.90;99.90
31979;DHT22;18502;43.574;1.276;2023-08-06T08:32:32;21.10;99.90
31979;DHT22;18502;43.574;1.276;2023-08-06T08:34:58;21.10;99.90
31979;DHT22;18502;43.574;1.276;2023-08-06T08:37:23;21.50;99.90
31979;DHT22;18502;43.574;1.276;2023-08-06T08:39:49;21.40;99.90
31979;DHT22;18502;43.574;1.276;2023-08-06T08:42:16;21.50;99.90
31979;DHT22;18502;43.574;1.276;2023-08-06T08:44:42;21.40;99.90
31979;DHT22;18502;43.574;1.276;2023-08-06T08:47:10;21.60;99.90
31979;DHT22;18502;43.574;1.276;2023-08-06T08:49:36;21.10;99.90
31979;DHT22;18502;43.574;1.276;2023-08-06T08:52:03;20.30;99.90
31979;DHT22;18502;43.574;1.276;2023-08-06T08:54:33;20.50;99.90
31979;DHT22;18502;43.574;1.276;2023-08-06T08:56:59;20.40;99.90
31979;DHT22;18502;43.574;1.276;2023-08-06T08:59:27;20.50;99.90
31979;DHT22;18502;43.574;1.276;2023-08-06T09:01:53;21.20;99.90
31979;DHT22;18502;43.574;1.276;2023-08-06T09:04:20;21.80;99.90
31979;DHT22;18502;43.574;1.276;2023-08-06T09:06:51;22.10;99.90
31979;DHT22;18502;43.574;1.276;2023-08-06T09:09:26;21.50;99.90
31979;DHT22;18502;43.574;1.276;2023-08-06T09:11:55;20.90;99.90
31979;DHT22;18502;43.574;1.276;2023-08-06T09:14:25;20.70;99.90
31979;DHT22;18502;43.574;1.276;2023-08-06T09:16:51;20.90;99.90
31979;DHT22;18502;43.574;1.276;2023-08-06T09:19:17;21.30;99.90
31979;DHT22;18502;43.574;1.276;2023-08-06T09:21:45;21.80;99.90
31979;DHT22;18502;43.574;1.276;2023-08-06T09:24:13;21.50;99.90
31979;DHT22;18502;43.574;1.276;2023-08-06T09:26:40;21.30;99.90
31979;DHT22;18502;43.574;1.276;2023-08-06T09:29:07;21.40;99.90
31979;DHT22;18502;43.574;1.276;2023-08-06T09:31:53;21.10;99.90
31979;DHT22;18502;43.574;1.276;2023-08-06T09:34:21;21.60;99.90
31979;DHT22;18502;43.574;1.276;2023-08-06T09:36:53;21.20;99.90
31979;DHT22;18502;43.574;1.276;2023-08-06T09:39:21;22.20;99.90
31979;DHT22;18502;43.574;1.276;2023-08-06T09:41:47;22.00;99.90
31979;DHT22;18502;43.574;1.276;2023-08-06T09:44:18;21.80;99.90
31979;DHT22;18502;43.574;1.276;2023-08-06T09:46:48;21.80;99.90
31979;DHT22;18502;43.574;1.276;2023-08-06T09:49:15;22.50;99.90
31979;DHT22;18502;43.574;1.276;2023-08-06T09:51:41;22.60;99.90
31979;DHT22;18502;43.574;1.276;2023-08-06T09:54:07;22.40;99.90
31979;DHT22;18502;43.574;1.276;2023-08-06T09:56:34;22.60;99.90
31979;DHT22;18502;43.574;1.276;2023-08-06T09:59:04;22.90;99.90
31979;DHT22;18502;43.574;1.276;2023-08-06T10:01:33;23.00;99.90
31979;DHT22;18502;43.574;1.276;2023-08-06T10:04:03;23.10;99.90
31979;DHT22;18502;43.574;1.276;2023-08-06T10:06:29;23.70;99.90
31979;DHT22;18502;43.574;1.276;2023-08-06T10:08:55;23.30;99.90
31979;DHT22;18502;43.574;1.276;2023-08-06T10:11:23;23.10;99.90
31979;DHT22;18502;43.574;1.276;2023-08-06T10:14:02;23.20;99.90
31979;DHT22;18502;43.574;1.276;2023-08-06T10:16:29;23.10;99.90
31979;DHT22;18502;43.574;1.276;2023-08-06T10:18:56;22.50;99.90
31979;DHT22;18502;43.574;1.276;2023-08-06T10:21:24;22.30;99.90
31979;DHT22;18502;43.574;1.276;2023-08-06T10:23:54;22.70;99.90
31979;DHT22;18502;43.574;1.276;2023-08-06T10:26:20;22.80;99.90
31979;DHT22;18502;43.574;1.276;2023-08-06T10:28:46;23.50;99.90
31979;DHT22;18502;43.574;1.276;2023-08-06T10:31:11;23.00;99.90
31979;DHT22;18502;43.574;1.276;2023-08-06T10:33:45;22.90;99.90
31979;DHT22;18502;43.574;1.276;2023-08-06T10:36:11;23.00;99.90
31979;DHT22;18502;43.574;1.276;2023-08-06T10:38:47;23.20;99.90
31979;DHT22;18502;43.574;1.276;2023-08-06T10:41:23;22.70;99.90
31979;DHT22;18502;43.574;1.276;2023-08-06T10:43:49;22.90;99.90
31979;DHT22;18502;43.574;1.276;2023-08-06T10:46:27;24.10;99.90
31979;DHT22;18502;43.574;1.276;2023-08-06T10:48:53;25.20;99.90
31979;DHT22;18502;43.574;1.276;2023-08-06T10:51:19;24.20;99.90
31979;DHT22;18502;43.574;1.276;2023-08-06T10:53:47;24.60;99.90
31979;DHT22;18502;43.574;1.276;2023-08-06T10:56:17;23.60;99.90
31979;DHT22;18502;43.574;1.276;2023-08-06T10:58:44;23.50;99.90
31979;DHT22;18502;43.574;1.276;2023-08-06T11:01:10;23.10;99.90
31979;DHT22;18502;43.574;1.276;2023-08-06T11:03:36;22.70;99.90
31979;DHT22;18502;43.574;1.276;2023-08-06T11:06:02;22.80;99.90
31979;DHT22;18502;43.574;1.276;2023-08-06T11:08:35;23.20;99.90
31979;DHT22;18502;43.574;1.276;2023-08-06T11:11:11;23.80;99.90
31979;DHT22;18502;43.574;1.276;2023-08-06T11:13:39;25.30;99.90
31979;DHT22;18502;43.574;1.276;2023-08-06T11:16:05;24.70;99.90
31979;DHT22;18502;43.574;1.276;2023-08-06T11:18:34;24.40;99.90
31979;DHT22;18502;43.574;1.276;2023-08-06T11:21:01;24.50;99.90
31979;DHT22;18502;43.574;1.276;2023-08-06T11:23:29;25.30;99.90
31979;DHT22;18502;43.574;1.276;2023-08-06T11:25:56;26.40;99.90
31979;DHT22;18502;43.574;1.276;2023-08-06T11:28:22;26.90;99.90
31979;DHT22;18502;43.574;1.276;2023-08-06T11:30:51;28.20;99.90
31979;DHT22;18502;43.574;1.276;2023-08-06T11:33:23;30.50;99.30
31979;DHT22;18502;43.574;1.276;2023-08-06T11:35:54;31.50;97.20
31979;DHT22;18502;43.574;1.276;2023-08-06T11:38:20;28.30;97.30
31979;DHT22;18502;43.574;1.276;2023-08-06T11:40:47;26.70;98.70
31979;DHT22;18502;43.574;1.276;2023-08-06T11:43:13;27.50;99.00
31979;DHT22;18502;43.574;1.276;2023-08-06T11:45:39;32.00;95.60
31979;DHT22;18502;43.574;1.276;2023-08-06T11:48:06;32.70;94.30
31979;DHT22;18502;43.574;1.276;2023-08-06T11:50:36;33.20;93.00
31979;DHT22;18502;43.574;1.276;2023-08-06T11:53:03;34.70;90.20
31979;DHT22;18502;43.574;1.276;2023-08-06T11:55:29;28.40;92.50
31979;DHT22;18502;43.574;1.276;2023-08-06T11:57:55;33.00;92.10
31979;DHT22;18502;43.574;1.276;2023-08-06T12:00:24;36.20;89.30
31979;DHT22;18502;43.574;1.276;2023-08-06T12:02:50;33.40;86.30
31979;DHT22;18502;43.574;1.276;2023-08-06T12:05:22;34.80;86.90
31979;DHT22;18502;43.574;1.276;2023-08-06T12:07:57;30.90;86.70
31979;DHT22;18502;43.574;1.276;2023-08-06T12:10:29;31.90;86.00
31979;DHT22;18502;43.574;1.276;2023-08-06T12:12:55;29.20;90.50
31979;DHT22;18502;43.574;1.276;2023-08-06T12:15:21;28.60;90.60
31979;DHT22;18502;43.574;1.276;2023-08-06T12:17:47;28.20;91.00
31979;DHT22;18502;43.574;1.276;2023-08-06T12:20:12;28.10;91.10
31979;DHT22;18502;43.574;1.276;2023-08-06T12:22:38;29.20;88.70
31979;DHT22;18502;43.574;1.276;2023-08-06T12:25:14;28.30;90.10
31979;DHT22;18502;43.574;1.276;2023-08-06T12:27:44;27.30;90.30
31979;DHT22;18502;43.574;1.276;2023-08-06T12:30:12;30.20;88.90
31979;DHT22;18502;43.574;1.276;2023-08-06T12:32:38;29.30;87.10
31979;DHT22;18502;43.574;1.276;2023-08-06T12:35:04;29.80;87.70
31979;DHT22;18502;43.574;1.276;2023-08-06T12:37:32;30.20;86.60
31979;DHT22;18502;43.574;1.276;2023-08-06T12:39:58;35.20;84.10
31979;DHT22;18502;43.574;1.276;2023-08-06T12:42:24;35.90;77.80
31979;DHT22;18502;43.574;1.276;2023-08-06T12:44:50;28.30;83.80
31979;DHT22;18502;43.574;1.276;2023-08-06T12:47:17;27.30;87.30
31979;DHT22;18502;43.574;1.276;2023-08-06T12:49:42;27.20;88.20
31979;DHT22;18502;43.574;1.276;2023-08-06T12:52:08;33.80;84.50
31979;DHT22;18502;43.574;1.276;2023-08-06T12:54:35;35.90;77.80
31979;DHT22;18502;43.574;1.276;2023-08-06T12:57:04;36.60;75.20
31979;DHT22;18502;43.574;1.276;2023-08-06T12:59:30;35.90;77.20
31979;DHT22;18502;43.574;1.276;2023-08-06T13:01:56;35.40;75.60
31979;DHT22;18502;43.574;1.276;2023-08-06T13:04:21;37.30;73.10
31979;DHT22;18502;43.574;1.276;2023-08-06T13:06:47;38.00;73.90
31979;DHT22;18502;43.574;1.276;2023-08-06T13:09:13;34.80;75.10
31979;DHT22;18502;43.574;1.276;2023-08-06T13:11:39;35.30;78.20
31979;DHT22;18502;43.574;1.276;2023-08-06T13:14:07;32.80;77.30
31979;DHT22;18502;43.574;1.276;2023-08-06T13:16:34;29.30;80.10
31979;DHT22;18502;43.574;1.276;2023-08-06T13:19:00;28.70;82.90
31979;DHT22;18502;43.574;1.276;2023-08-06T13:21:33;32.20;77.30
31979;DHT22;18502;43.574;1.276;2023-08-06T13:24:00;30.20;80.40
31979;DHT22;18502;43.574;1.276;2023-08-06T13:26:27;33.30;78.20
31979;DHT22;18502;43.574;1.276;2023-08-06T13:28:53;35.90;74.80
31979;DHT22;18502;43.574;1.276;2023-08-06T13:31:19;33.50;73.60
31979;DHT22;18502;43.574;1.276;2023-08-06T13:33:44;30.20;75.70
31979;DHT22;18502;43.574;1.276;2023-08-06T13:36:10;31.30;76.60
31979;DHT22;18502;43.574;1.276;2023-08-06T13:38:35;34.10;76.00
31979;DHT22;18502;43.574;1.276;2023-08-06T13:41:01;37.20;73.00
31979;DHT22;18502;43.574;1.276;2023-08-06T13:43:27;35.20;71.50
31979;DHT22;18502;43.574;1.276;2023-08-06T13:45:53;35.40;72.90
31979;DHT22;18502;43.574;1.276;2023-08-06T13:48:19;38.40;69.40
31979;DHT22;18502;43.574;1.276;2023-08-06T13:50:44;40.70;67.30
31979;DHT22;18502;43.574;1.276;2023-08-06T13:53:10;41.10;65.50
31979;DHT22;18502;43.574;1.276;2023-08-06T13:55:36;40.60;64.10
31979;DHT22;18502;43.574;1.276;2023-08-06T13:58:01;39.30;62.80
31979;DHT22;18502;43.574;1.276;2023-08-06T14:00:28;37.90;65.90
31979;DHT22;18502;43.574;1.276;2023-08-06T14:02:53;35.40;65.90
31979;DHT22;18502;43.574;1.276;2023-08-06T14:05:19;33.40;70.00
31979;DHT22;18502;43.574;1.276;2023-08-06T14:07:44;30.70;74.20
31979;DHT22;18502;43.574;1.276;2023-08-06T14:10:10;33.90;72.90
31979;DHT22;18502;43.574;1.276;2023-08-06T14:12:36;35.00;68.30
31979;DHT22;18502;43.574;1.276;2023-08-06T14:15:01;35.20;71.70
31979;DHT22;18502;43.574;1.276;2023-08-06T14:17:29;34.30;71.30
31979;DHT22;18502;43.574;1.276;2023-08-06T14:19:54;37.30;69.20
31979;DHT22;18502;43.574;1.276;2023-08-06T14:22:21;37.80;67.00
31979;DHT22;18502;43.574;1.276;2023-08-06T14:24:46;37.70;68.70
31979;DHT22;18502;43.574;1.276;2023-08-06T14:27:12;35.80;67.70
31979;DHT22;18502;43.574;1.276;2023-08-06T14:29:38;39.30;66.70
31979;DHT22;18502;43.574;1.276;2023-08-06T14:32:04;37.50;64.30
31979;DHT22;18502;43.574;1.276;2023-08-06T14:34:30;36.50;65.60
31979;DHT22;18502;43.574;1.276;2023-08-06T14:36:55;33.10;68.80
31979;DHT22;18502;43.574;1.276;2023-08-06T14:39:22;30.80;71.70
31979;DHT22;18502;43.574;1.276;2023-08-06T14:41:47;29.30;74.70
31979;DHT22;18502;43.574;1.276;2023-08-06T14:44:13;29.60;74.70
31979;DHT22;18502;43.574;1.276;2023-08-06T14:46:39;28.90;76.40
31979;DHT22;18502;43.574;1.276;2023-08-06T14:49:04;28.50;76.50
31979;DHT22;18502;43.574;1.276;2023-08-06T14:51:30;33.50;72.30
31979;DHT22;18502;43.574;1.276;2023-08-06T14:53:56;37.60;68.90
31979;DHT22;18502;43.574;1.276;2023-08-06T14:56:22;38.10;66.40
31979;DHT22;18502;43.574;1.276;2023-08-06T14:58:48;35.20;67.20
31979;DHT22;18502;43.574;1.276;2023-08-06T15:01:14;34.00;69.10
31979;DHT22;18502;43.574;1.276;2023-08-06T15:03:39;36.40;67.60
31979;DHT22;18502;43.574;1.276;2023-08-06T15:06:05;38.90;64.70
31979;DHT22;18502;43.574;1.276;2023-08-06T15:08:31;40.50;62.80
31979;DHT22;18502;43.574;1.276;2023-08-06T15:10:56;42.10;61.80
31979;DHT22;18502;43.574;1.276;2023-08-06T15:13:22;39.40;61.40
31979;DHT22;18502;43.574;1.276;2023-08-06T15:15:49;38.60;64.00
31979;DHT22;18502;43.574;1.276;2023-08-06T15:18:15;36.40;64.70
31979;DHT22;18502;43.574;1.276;2023-08-06T15:20:40;34.20;63.60
31979;DHT22;18502;43.574;1.276;2023-08-06T15:23:06;31.00;69.10
31979;DHT22;18502;43.574;1.276;2023-08-06T15:25:32;31.10;70.20
31979;DHT22;18502;43.574;1.276;2023-08-06T15:27:57;33.20;67.20
31979;DHT22;18502;43.574;1.276;2023-08-06T15:30:23;31.90;69.80
31979;DHT22;18502;43.574;1.276;2023-08-06T15:32:49;33.10;68.20
31979;DHT22;18502;43.574;1.276;2023-08-06T15:35:15;33.60;66.70